sensor_id;sensor_type;location;lat;lon;timestamp;temperature;humidity
13123;DHT22;6627;50.920;12.050;2022-12-29T05:42:40;10.40;99.90
13123;DHT22;6627;50.920;12.050;2022-12-29T05:45:08;10.40;99.90
13123;DHT22;6627;50.920;12.050;2022-12-29T05:47:36;10.30;99.90
13123;DHT22;6627;50.920;12.050;2022-12-29T05:50:04;10.20;99.90
13123;DHT22;6627;50.920;12.050;2022-12-29T05:52:31;10.30;99.90
13123;DHT22;6627;50.920;12.050;2022-12-29T05:54:59;10.30;99.90
13123;DHT22;6627;50.920;12.050;2022-12-29T05:57:26;10.20;99.90
13123;DHT22;6627;50.920;12.050;2022-12-29T05:59:53;10.20;99.90
13123;DHT22;6627;50.920;12.050;2022-12-29T06:02:21;10.20;99.90
13123;DHT22;6627;50.920;12.050;2022-12-29T06:04:48;10.20;99.90
13123;DHT22;6627;50.920;12.050;2022-12-29T06:07:15;10.40;99.90
13123;DHT22;6627;50.920;12.050;2022-12-29T06:09:42;10.30;99.90
13123;DHT22;6627;50.920;12.050;2022-12-29T06:12:11;10.40;99.90
13123;DHT22;6627;50.920;12.050;2022-12-29T06:14:38;10.20;99.90
13123;DHT22;6627;50.920;12.050;2022-12-29T06:17:05;10.20;99.90
13123;DHT22;6627;50.920;12.050;2022-12-29T06:19:33;10.30;99.90
13123;DHT22;6627;50.920;12.050;2022-12-29T06:22:00;10.30;99.90
13123;DHT22;6627;50.920;12.050;2022-12-29T06:24:28;10.30;99.90
13123;DHT22;6627;50.920;12.050;2022-12-29T06:26:55;10.40;99.90
13123;DHT22;6627;50.920;12.050;2022-12-29T06:29:23;10.40;99.90
13123;DHT22;6627;50.920;12.050;2022-12-29T06:31:50;10.40;99.90
13123;DHT22;6627;50.920;12.050;2022-12-29T06:34:22;10.50;99.90
13123;DHT22;6627;50.920;12.050;2022-12-29T06:36:49;10.50;99.90
13123;DHT22;6627;50.920;12.050;2022-12-29T06:39:16;10.50;99.90
13123;DHT22;6627;50.920;12.050;2022-12-29T06:41:43;10.50;99.90
13123;DHT22;6627;50.920;12.050;2022-12-29T06:44:11;10.50;99.90
13123;DHT22;6627;50.920;12.050;2022-12-29T06:46:39;10.60;99.90
13123;DHT22;6627;50.920;12.050;2022-12-29T06:49:06;10.60;99.90
13123;DHT22;6627;50.920;12.050;2022-12-29T06:51:34;10.50;99.90
13123;DHT22;6627;50.920;12.050;2022-12-29T06:54:01;10.60;99.90
13123;DHT22;6627;50.920;12.050;2022-12-29T06:56:28;10.50;99.90
13123;DHT22;6627;50.920;12.050;2022-12-29T06:58:55;10.60;99.90
13123;DHT22;6627;50.920;12.050;2022-12-29T07:01:22;10.60;99.90
13123;DHT22;6627;50.920;12.050;2022-12-29T07:03:51;10.80;99.90
13123;DHT22;6627;50.920;12.050;2022-12-29T07:06:18;10.80;99.90
13123;DHT22;6627;50.920;12.050;2022-12-29T07:08:46;10.80;99.90
13123;DHT22;6627;50.920;12.050;2022-12-29T07:11:13;10.70;99.90
13123;DHT22;6627;50.920;12.050;2022-12-29T07:13:40;10.70;99.90
13123;DHT22;6627;50.920;12.050;2022-12-29T07:16:08;10.80;99.90
13123;DHT22;6627;50.920;12.050;2022-12-29T07:18:36;10.80;99.90
13123;DHT22;6627;50.920;12.050;2022-12-29T07:21:05;10.80;99.90
13123;DHT22;6627;50.920;12.050;2022-12-29T07:23:32;10.80;99.90
13123;DHT22;6627;50.920;12.050;2022-12-29T07:26:00;10.90;99.90
13123;DHT22;6627;50.920;12.050;2022-12-29T07:28:28;10.80;99.90
13123;DHT22;6627;50.920;12.050;2022-12-29T07:30:58;10.90;99.90
13123;DHT22;6627;50.920;12.050;2022-12-29T07:33:28;10.90;99.90
13123;DHT22;6627;50.920;12.050;2022-12-29T07:35:56;10.80;99.90
13123;DHT22;6627;50.920;12.050;2022-12-29T07:38:25;10.80;99.90
13123;DHT22;6627;50.920;12.050;2022-12-29T07:40:56;10.90;99.90
13123;DHT22;6627;50.920;12.050;2022-12-29T07:43:25;11.00;99.90
13123;DHT22;6627;50.920;12.050;2022-12-29T07:45:52;11.00;99.90
13123;DHT22;6627;50.920;12.050;2022-12-29T07:48:19;10.90;99.90
13123;DHT22;6627;50.920;12.050;2022-12-29T07:50:47;10.90;99.90
13123;DHT22;6627;50.920;12.050;2022-12-29T07:53:14;11.00;99.90
13123;DHT22;6627;50.920;12.050;2022-12-29T07:55:43;11.00;99.90
13123;DHT22;6627;50.920;12.050;2022-12-29T07:58:10;11.00;99.90
13123;DHT22;6627;50.920;12.050;2022-12-29T08:00:37;10.90;99.90
13123;DHT22;6627;50.920;12.050;2022-12-29T08:03:05;11.00;99.90
13123;DHT22;6627;50.920;12.050;2022-12-29T08:05:33;10.90;99.90
13123;DHT22;6627;50.920;12.050;2022-12-29T08:08:01;11.00;99.90
13123;DHT22;6627;50.920;12.050;2022-12-29T08:10:28;11.00;99.90
13123;DHT22;6627;50.920;12.050;2022-12-29T08:12:57;11.10;99.90
13123;DHT22;6627;50.920;12.050;2022-12-29T08:15:25;11.10;99.90
13123;DHT22;6627;50.920;12.050;2022-12-29T08:17:52;11.10;99.90
13123;DHT22;6627;50.920;12.050;2022-12-29T08:20:19;11.20;99.90
13123;DHT22;6627;50.920;12.050;2022-12-29T08:22:46;11.10;99.90
13123;DHT22;6627;50.920;12.050;2022-12-29T08:25:15;11.20;99.90
13123;DHT22;6627;50.920;12.050;2022-12-29T08:27:42;11.20;99.90
13123;DHT22;6627;50.920;12.050;2022-12-29T08:30:12;11.20;99.90
13123;DHT22;6627;50.920;12.050;2022-12-29T08:32:40;11.20;99.90
13123;DHT22;6627;50.920;12.050;2022-12-29T08:35:08;11.20;99.90
13123;DHT22;6627;50.920;12.050;2022-12-29T08:37:35;11.30;99.90
13123;DHT22;6627;50.920;12.050;2022-12-29T08:40:04;11.30;99.90
13123;DHT22;6627;50.920;12.050;2022-12-29T08:42:32;11.30;99.90
13123;DHT22;6627;50.920;12.050;2022-12-29T08:45:00;11.30;99.90
13123;DHT22;6627;50.920;12.050;2022-12-29T08:47:30;11.30;99.90
13123;DHT22;6627;50.920;12.050;2022-12-29T08:49:57;11.30;99.90
13123;DHT22;6627;50.920;12.050;2022-12-29T08:52:24;11.30;99.90
13123;DHT22;6627;50.920;12.050;2022-12-29T08:54:51;11.40;99.90
13123;DHT22;6627;50.920;12.050;2022-12-29T08:57:18;11.40;99.90
13123;DHT22;6627;50.920;12.050;2022-12-29T08:59:46;11.30;99.90
13123;DHT22;6627;50.920;12.050;2022-12-29T09:02:13;11.40;99.90
13123;DHT22;6627;50.920;12.050;2022-12-29T09:04:41;11.40;99.90
13123;DHT22;6627;50.920;12.050;2022-12-29T09:07:08;11.40;99.90
13123;DHT22;6627;50.920;12.050;2022-12-29T09:09:36;11.40;99.90
13123;DHT22;6627;50.920;12.050;2022-12-29T09:12:03;11.40;99.90
13123;DHT22;6627;50.920;12.050;2022-12-29T09:14:31;11.50;99.90
13123;DHT22;6627;50.920;12.050;2022-12-29T09:16:58;11.40;99.90
13123;DHT22;6627;50.920;12.050;2022-12-29T09:19:44;11.40;99.90
13123;DHT22;6627;50.920;12.050;2022-12-29T09:22:11;11.50;99.90
13123;DHT22;6627;50.920;12.050;2022-12-29T09:32:01;11.80;99.90
13123;DHT22;6627;50.920;12.050;2022-12-29T09:34:28;11.80;99.90
13123;DHT22;6627;50.920;12.050;2022-12-29T09:36:56;11.80;99.90
13123;DHT22;6627;50.920;12.050;2022-12-29T09:39:24;11.80;99.90
13123;DHT22;6627;50.920;12.050;2022-12-29T09:41:59;11.80;99.90
13123;DHT22;6627;50.920;12.050;2022-12-29T09:44:48;11.80;99.90
13123;DHT22;6627;50.920;12.050;2022-12-29T09:47:23;11.90;99.90
13123;DHT22;6627;50.920;12.050;2022-12-29T09:49:54;11.90;99.90
13123;DHT22;6627;50.920;12.050;2022-12-29T09:52:30;12.00;99.90
13123;DHT22;6627;50.920;12.050;2022-12-29T09:55:03;12.00;99.90
13123;DHT22;6627;50.920;12.050;2022-12-29T09:57:35;12.10;99.90
13123;DHT22;6627;50.920;12.050;2022-12-29T10:00:13;12.10;99.90
13123;DHT22;6627;50.920;12.050;2022-12-29T10:02:45;12.10;99.90
13123;DHT22;6627;50.920;12.050;2022-12-29T10:05:23;12.10;99.90
13123;DHT22;6627;50.920;12.050;2022-12-29T10:08:21;12.20;99.90
13123;DHT22;6627;50.920;12.050;2022-12-29T10:11:01;12.20;99.90
13123;DHT22;6627;50.920;12.050;2022-12-29T10:13:43;12.20;99.90
13123;DHT22;6627;50.920;12.050;2022-12-29T10:16:32;12.20;99.90
13123;DHT22;6627;50.920;12.050;2022-12-29T10:19:30;12.30;99.90
13123;DHT22;6627;50.920;12.050;2022-12-29T10:22:15;12.30;99.90
13123;DHT22;6627;50.920;12.050;2022-12-29T10:24:58;12.30;99.90
13123;DHT22;6627;50.920;12.050;2022-12-29T10:27:31;12.30;99.90
13123;DHT22;6627;50.920;12.050;2022-12-29T10:30:01;12.30;99.90
13123;DHT22;6627;50.920;12.050;2022-12-29T10:32:34;12.30;99.90
13123;DHT22;6627;50.920;12.050;2022-12-29T10:35:12;12.40;99.90
13123;DHT22;6627;50.920;12.050;2022-12-29T10:37:49;12.40;99.90
13123;DHT22;6627;50.920;12.050;2022-12-29T10:40:26;12.40;99.90
13123;DHT22;6627;50.920;12.050;2022-12-29T10:42:58;12.40;99.90
13123;DHT22;6627;50.920;12.050;2022-12-29T10:45:29;12.40;99.90
13123;DHT22;6627;50.920;12.050;2022-12-29T10:48:02;12.40;99.90
13123;DHT22;6627;50.920;12.050;2022-12-29T10:50:33;12.40;99.90
13123;DHT22;6627;50.920;12.050;2022-12-29T10:53:03;12.30;99.90
13123;DHT22;6627;50.920;12.050;2022-12-29T10:55:35;12.30;99.90
13123;DHT22;6627;50.920;12.050;2022-12-29T10:58:06;12.40;99.90
13123;DHT22;6627;50.920;12.050;2022-12-29T11:00:38;12.30;99.90
13123;DHT22;6627;50.920;12.050;2022-12-29T11:03:35;12.30;99.90
13123;DHT22;6627;50.920;12.050;2022-12-29T11:06:18;12.30;99.90
13123;DHT22;6627;50.920;12.050;2022-12-29T11:08:55;12.30;99.90
13123;DHT22;6627;50.920;12.050;2022-12-29T11:11:33;12.30;99.90
13123;DHT22;6627;50.920;12.050;2022-12-29T11:14:10;12.20;99.90
13123;DHT22;6627;50.920;12.050;2022-12-29T11:16:39;12.30;99.90
13123;DHT22;6627;50.920;12.050;2022-12-29T11:19:20;12.30;99.90
13123;DHT22;6627;50.920;12.050;2022-12-29T11:21:49;12.30;99.90
13123;DHT22;6627;50.920;12.050;2022-12-29T11:24:22;12.30;99.90
13123;DHT22;6627;50.920;12.050;2022-12-29T11:26:53;12.40;99.90
13123;DHT22;6627;50.920;12.050;2022-12-29T11:29:25;12.40;99.90
13123;DHT22;6627;50.920;12.050;2022-12-29T11:31:55;12.40;99.90
13123;DHT22;6627;50.920;12.050;2022-12-29T11:34:26;12.40;99.90
13123;DHT22;6627;50.920;12.050;2022-12-29T11:37:00;12.40;99.90
13123;DHT22;6627;50.920;12.050;2022-12-29T11:39:34;12.40;99.90
13123;DHT22;6627;50.920;12.050;2022-12-29T11:42:14;12.40;99.90
13123;DHT22;6627;50.920;12.050;2022-12-29T11:44:45;12.40;99.90
13123;DHT22;6627;50.920;12.050;2022-12-29T11:47:23;12.40;99.90
13123;DHT22;6627;50.920;12.050;2022-12-29T11:49:57;12.30;99.90
13123;DHT22;6627;50.920;12.050;2022-12-29T11:52:29;12.40;99.90
13123;DHT22;6627;50.920;12.050;2022-12-29T11:55:04;12.40;99.90
13123;DHT22;6627;50.920;12.050;2022-12-29T11:57:35;12.40;99.90
13123;DHT22;6627;50.920;12.050;2022-12-29T12:00:16;12.50;99.90
13123;DHT22;6627;50.920;12.050;2022-12-29T12:02:49;12.40;99.90
13123;DHT22;6627;50.920;12.050;2022-12-29T12:05:24;12.40;99.90
13123;DHT22;6627;50.920;12.050;2022-12-29T12:08:03;12.40;99.90
13123;DHT22;6627;50.920;12.050;2022-12-29T12:10:45;12.40;99.90
13123;DHT22;6627;50.920;12.050;2022-12-29T12:13:26;12.50;99.90
13123;DHT22;6627;50.920;12.050;2022-12-29T12:16:00;12.40;99.90
13123;DHT22;6627;50.920;12.050;2022-12-29T12:18:39;12.50;99.90
13123;DHT22;6627;50.920;12.050;2022-12-29T12:21:22;12.40;99.90
13123;DHT22;6627;50.920;12.050;2022-12-29T12:24:18;12.40;99.90
13123;DHT22;6627;50.920;12.050;2022-12-29T12:27:02;12.50;99.90
13123;DHT22;6627;50.920;12.050;2022-12-29T12:29:43;12.50;99.90
13123;DHT22;6627;50.920;12.050;2022-12-29T12:32:20;12.50;99.90
13123;DHT22;6627;50.920;12.050;2022-12-29T12:34:53;12.50;99.90
13123;DHT22;6627;50.920;12.050;2022-12-29T12:37:37;12.50;99.90
13123;DHT22;6627;50.920;12.050;2022-12-29T13:21:09;11.80;99.90
13123;DHT22;6627;50.920;12.050;2022-12-29T13:23:56;11.80;99.90
13123;DHT22;6627;50.920;12.050;2022-12-29T13:26:32;11.80;99.90
13123;DHT22;6627;50.920;12.050;2022-12-29T13:29:06;11.70;99.90
13123;DHT22;6627;50.920;12.050;2022-12-29T13:31:48;11.70;99.90
13123;DHT22;6627;50.920;12.050;2022-12-29T13:34:32;11.60;99.90
13123;DHT22;6627;50.920;12.050;2022-12-29T13:37:11;11.60;99.90
13123;DHT22;6627;50.920;12.050;2022-12-29T13:39:45;11.60;99.90
13123;DHT22;6627;50.920;12.050;2022-12-29T13:42:18;11.50;99.90
13123;DHT22;6627;50.920;12.050;2022-12-29T13:44:48;11.50;99.90
13123;DHT22;6627;50.920;12.050;2022-12-29T13:47:26;11.50;99.90
13123;DHT22;6627;50.920;12.050;2022-12-29T13:50:02;11.50;99.90
13123;DHT22;6627;50.920;12.050;2022-12-29T13:52:36;11.50;99.90
13123;DHT22;6627;50.920;12.050;2022-12-29T13:55:21;11.40;99.90
13123;DHT22;6627;50.920;12.050;2022-12-29T13:57:57;11.50;99.90
13123;DHT22;6627;50.920;12.050;2022-12-29T14:00:35;11.60;99.90
13123;DHT22;6627;50.920;12.050;2022-12-29T14:03:25;11.60;99.90
13123;DHT22;6627;50.920;12.050;2022-12-29T14:06:16;11.60;99.90
13123;DHT22;6627;50.920;12.050;2022-12-29T14:08:48;11.60;99.90
13123;DHT22;6627;50.920;12.050;2022-12-29T14:11:21;11.70;99.90
13123;DHT22;6627;50.920;12.050;2022-12-29T14:13:51;11.70;99.90
13123;DHT22;6627;50.920;12.050;2022-12-29T14:16:30;11.60;99.90
13123;DHT22;6627;50.920;12.050;2022-12-29T14:19:18;11.50;99.90
13123;DHT22;6627;50.920;12.050;2022-12-29T14:21:57;11.60;99.90
13123;DHT22;6627;50.920;12.050;2022-12-29T14:24:42;11.60;99.90
13123;DHT22;6627;50.920;12.050;2022-12-29T17:32:01;8.60;99.90
13123;DHT22;6627;50.920;12.050;2022-12-29T17:34:31;8.50;99.90
13123;DHT22;6627;50.920;12.050;2022-12-29T17:36:59;8.60;99.90
13123;DHT22;6627;50.920;12.050;2022-12-29T17:39:26;8.40;99.90
13123;DHT22;6627;50.920;12.050;2022-12-29T17:41:53;8.30;99.90
13123;DHT22;6627;50.920;12.050;2022-12-29T17:44:20;8.40;99.90
13123;DHT22;6627;50.920;12.050;2022-12-29T17:46:51;8.30;99.90
13123;DHT22;6627;50.920;12.050;2022-12-29T17:49:19;8.20;99.90
13123;DHT22;6627;50.920;12.050;2022-12-29T17:51:46;8.20;99.90
13123;DHT22;6627;50.920;12.050;2022-12-29T17:54:18;8.20;99.90
13123;DHT22;6627;50.920;12.050;2022-12-29T17:56:47;8.20;99.90
13123;DHT22;6627;50.920;12.050;2022-12-29T17:59:15;8.00;99.90
13123;DHT22;6627;50.920;12.050;2022-12-29T18:01:45;8.00;99.90
13123;DHT22;6627;50.920;12.050;2022-12-29T18:04:16;8.00;99.90
13123;DHT22;6627;50.920;12.050;2022-12-29T18:06:46;8.20;99.90
13123;DHT22;6627;50.920;12.050;2022-12-29T18:09:13;8.40;99.90
13123;DHT22;6627;50.920;12.050;2022-12-29T18:11:43;8.40;99.90
13123;DHT22;6627;50.920;12.050;2022-12-29T18:14:12;8.40;99.90
13123;DHT22;6627;50.920;12.050;2022-12-29T18:16:39;8.50;99.90
13123;DHT22;6627;50.920;12.050;2022-12-29T18:19:07;8.50;99.90
13123;DHT22;6627;50.920;12.050;2022-12-29T18:21:35;8.70;99.90
13123;DHT22;6627;50.920;12.050;2022-12-29T18:24:10;8.70;99.90
13123;DHT22;6627;50.920;12.050;2022-12-29T18:26:39;8.70;99.90
13123;DHT22;6627;50.920;12.050;2022-12-29T18:29:06;8.90;99.90
13123;DHT22;6627;50.920;12.050;2022-12-29T18:31:34;8.70;99.90
13123;DHT22;6627;50.920;12.050;2022-12-29T18:34:06;8.60;99.90
13123;DHT22;6627;50.920;12.050;2022-12-29T18:36:38;8.40;99.90
13123;DHT22;6627;50.920;12.050;2022-12-29T18:39:06;8.40;99.90
13123;DHT22;6627;50.920;12.050;2022-12-29T18:41:34;8.40;99.90
13123;DHT22;6627;50.920;12.050;2022-12-29T18:44:01;8.10;99.90
13123;DHT22;6627;50.920;12.050;2022-12-29T18:46:28;8.20;99.90
13123;DHT22;6627;50.920;12.050;2022-12-29T18:48:56;8.10;99.90
13123;DHT22;6627;50.920;12.050;2022-12-29T18:51:24;8.00;99.90
13123;DHT22;6627;50.920;12.050;2022-12-29T18:53:51;8.10;99.90
13123;DHT22;6627;50.920;12.050;2022-12-29T18:56:20;8.00;99.90
13123;DHT22;6627;50.920;12.050;2022-12-29T18:58:48;8.10;99.90
13123;DHT22;6627;50.920;12.050;2022-12-29T19:01:18;8.10;99.90
13123;DHT22;6627;50.920;12.050;2022-12-29T19:03:46;7.90;99.90
13123;DHT22;6627;50.920;12.050;2022-12-29T19:06:14;7.80;99.90
13123;DHT22;6627;50.920;12.050;2022-12-29T19:08:41;7.80;99.90
13123;DHT22;6627;50.920;12.050;2022-12-29T19:11:08;8.10;99.90
13123;DHT22;6627;50.920;12.050;2022-12-29T19:13:37;8.50;99.90
13123;DHT22;6627;50.920;12.050;2022-12-29T19:16:06;8.50;99.90
13123;DHT22;6627;50.920;12.050;2022-12-29T19:18:38;8.50;99.90
13123;DHT22;6627;50.920;12.050;2022-12-29T19:21:05;8.60;99.90
13123;DHT22;6627;50.920;12.050;2022-12-29T19:23:33;8.60;99.90
13123;DHT22;6627;50.920;12.050;2022-12-29T19:26:00;8.50;99.90
13123;DHT22;6627;50.920;12.050;2022-12-29T19:28:28;8.50;99.90
13123;DHT22;6627;50.920;12.050;2022-12-29T19:30:59;8.60;99.90
13123;DHT22;6627;50.920;12.050;2022-12-29T19:33:28;8.60;99.90
13123;DHT22;6627;50.920;12.050;2022-12-29T19:35:57;8.50;99.90
13123;DHT22;6627;50.920;12.050;2022-12-29T19:38:27;8.40;99.90
13123;DHT22;6627;50.920;12.050;2022-12-29T19:40:54;8.30;99.90
13123;DHT22;6627;50.920;12.050;2022-12-29T19:43:22;8.40;99.90
13123;DHT22;6627;50.920;12.050;2022-12-29T19:45:49;8.40;99.90
13123;DHT22;6627;50.920;12.050;2022-12-29T19:48:19;8.40;99.90
13123;DHT22;6627;50.920;12.050;2022-12-29T19:50:47;8.30;99.90
13123;DHT22;6627;50.920;12.050;2022-12-29T19:53:15;8.30;99.90
13123;DHT22;6627;50.920;12.050;2022-12-29T19:55:43;8.20;99.90
13123;DHT22;6627;50.920;12.050;2022-12-29T19:58:12;8.10;99.90
13123;DHT22;6627;50.920;12.050;2022-12-29T20:00:41;7.80;99.90
13123;DHT22;6627;50.920;12.050;2022-12-29T20:03:09;7.80;99.90
13123;DHT22;6627;50.920;12.050;2022-12-29T20:05:37;7.70;99.90
13123;DHT22;6627;50.920;12.050;2022-12-29T20:08:05;7.50;99.90
13123;DHT22;6627;50.920;12.050;2022-12-29T20:10:33;7.20;99.90
13123;DHT22;6627;50.920;12.050;2022-12-29T20:13:00;7.10;99.90
13123;DHT22;6627;50.920;12.050;2022-12-29T20:15:29;7.00;99.90
13123;DHT22;6627;50.920;12.050;2022-12-29T20:17:56;6.80;99.90
13123;DHT22;6627;50.920;12.050;2022-12-29T20:20:23;6.70;99.90
13123;DHT22;6627;50.920;12.050;2022-12-29T20:22:51;6.70;99.90
13123;DHT22;6627;50.920;12.050;2022-12-29T20:25:19;6.70;99.90
13123;DHT22;6627;50.920;12.050;2022-12-29T20:27:46;6.70;99.90
13123;DHT22;6627;50.920;12.050;2022-12-29T20:30:13;6.50;99.90
13123;DHT22;6627;50.920;12.050;2022-12-29T20:32:40;6.50;99.90
13123;DHT22;6627;50.920;12.050;2022-12-29T20:35:07;6.50;99.90
13123;DHT22;6627;50.920;12.050;2022-12-29T20:37:34;6.50;99.90
13123;DHT22;6627;50.920;12.050;2022-12-29T20:40:03;6.50;99.90
13123;DHT22;6627;50.920;12.050;2022-12-29T20:42:33;6.40;99.90
13123;DHT22;6627;50.920;12.050;2022-12-29T20:45:00;6.40;99.90
13123;DHT22;6627;50.920;12.050;2022-12-29T20:47:28;6.40;99.90
13123;DHT22;6627;50.920;12.050;2022-12-29T20:49:55;6.50;99.90
13123;DHT22;6627;50.920;12.050;2022-12-29T20:52:22;6.40;99.90
13123;DHT22;6627;50.920;12.050;2022-12-29T20:54:49;6.40;99.90
13123;DHT22;6627;50.920;12.050;2022-12-29T20:57:17;6.40;99.90
13123;DHT22;6627;50.920;12.050;2022-12-29T20:59:45;6.50;99.90
13123;DHT22;6627;50.920;12.050;2022-12-29T21:02:17;6.50;99.90
13123;DHT22;6627;50.920;12.050;2022-12-29T21:04:46;6.70;99.90
13123;DHT22;6627;50.920;12.050;2022-12-29T21:07:13;6.70;99.90
13123;DHT22;6627;50.920;12.050;2022-12-29T21:09:41;6.70;99.90
13123;DHT22;6627;50.920;12.050;2022-12-29T21:12:08;6.90;99.90
13123;DHT22;6627;50.920;12.050;2022-12-29T21:14:37;6.90;99.90
13123;DHT22;6627;50.920;12.050;2022-12-29T21:17:04;6.80;99.90
13123;DHT22;6627;50.920;12.050;2022-12-29T21:19:31;6.80;99.90
13123;DHT22;6627;50.920;12.050;2022-12-29T21:21:58;7.00;99.90
13123;DHT22;6627;50.920;12.050;2022-12-29T21:24:25;7.00;99.90
13123;DHT22;6627;50.920;12.050;2022-12-29T21:26:53;7.00;99.90
13123;DHT22;6627;50.920;12.050;2022-12-29T21:29:20;7.20;99.90
13123;DHT22;6627;50.920;12.050;2022-12-29T21:31:48;6.90;99.90
13123;DHT22;6627;50.920;12.050;2022-12-29T21:34:15;6.90;99.90
13123;DHT22;6627;50.920;12.050;2022-12-29T21:36:42;6.80;99.90
13123;DHT22;6627;50.920;12.050;2022-12-29T21:39:09;6.80;99.90
13123;DHT22;6627;50.920;12.050;2022-12-29T21:41:37;6.70;99.90
13123;DHT22;6627;50.920;12.050;2022-12-29T21:44:05;6.60;99.90
13123;DHT22;6627;50.920;12.050;2022-12-29T21:46:51;6.70;99.90
13123;DHT22;6627;50.920;12.050;2022-12-29T21:49:18;6.70;99.90
13123;DHT22;6627;50.920;12.050;2022-12-29T21:51:50;6.50;99.90
13123;DHT22;6627;50.920;12.050;2022-12-29T21:54:20;6.40;99.90
13123;DHT22;6627;50.920;12.050;2022-12-29T21:57:07;6.30;99.90
13123;DHT22;6627;50.920;12.050;2022-12-29T21:59:35;6.00;99.90
13123;DHT22;6627;50.920;12.050;2022-12-29T22:02:22;5.90;99.90
13123;DHT22;6627;50.920;12.050;2022-12-29T22:05:12;6.00;99.90
13123;DHT22;6627;50.920;12.050;2022-12-29T22:07:59;6.00;99.90
13123;DHT22;6627;50.920;12.050;2022-12-29T22:10:46;5.90;99.90
13123;DHT22;6627;50.920;12.050;2022-12-29T22:13:31;6.40;99.90
13123;DHT22;6627;50.920;12.050;2022-12-29T22:16:01;6.30;99.90
13123;DHT22;6627;50.920;12.050;2022-12-29T22:18:31;6.20;99.90
13123;DHT22;6627;50.920;12.050;2022-12-29T22:20:59;6.10;99.90
13123;DHT22;6627;50.920;12.050;2022-12-29T22:23:29;6.10;99.90
13123;DHT22;6627;50.920;12.050;2022-12-29T22:25:56;6.10;99.90
13123;DHT22;6627;50.920;12.050;2022-12-29T22:28:28;6.10;99.90
13123;DHT22;6627;50.920;12.050;2022-12-29T22:30:55;6.20;99.90
13123;DHT22;6627;50.920;12.050;2022-12-29T22:33:22;6.20;99.90
13123;DHT22;6627;50.920;12.050;2022-12-29T22:35:51;6.10;99.90
13123;DHT22;6627;50.920;12.050;2022-12-29T22:38:18;6.10;99.90
13123;DHT22;6627;50.920;12.050;2022-12-29T22:40:45;6.10;99.90
13123;DHT22;6627;50.920;12.050;2022-12-29T22:43:12;6.10;99.90
13123;DHT22;6627;50.920;12.050;2022-12-29T22:45:40;6.10;99.90
13123;DHT22;6627;50.920;12.050;2022-12-29T22:48:07;6.20;99.90
13123;DHT22;6627;50.920;12.050;2022-12-29T22:50:35;6.40;99.90
13123;DHT22;6627;50.920;12.050;2022-12-29T22:53:05;6.40;99.90
13123;DHT22;6627;50.920;12.050;2022-12-29T22:55:33;6.50;99.90
13123;DHT22;6627;50.920;12.050;2022-12-29T22:58:01;6.50;99.90
13123;DHT22;6627;50.920;12.050;2022-12-29T23:00:28;6.40;99.90
13123;DHT22;6627;50.920;12.050;2022-12-29T23:02:55;6.50;99.90
13123;DHT22;6627;50.920;12.050;2022-12-29T23:05:22;6.30;99.90
13123;DHT22;6627;50.920;12.050;2022-12-29T23:07:50;6.40;99.90
13123;DHT22;6627;50.920;12.050;2022-12-29T23:10:18;6.40;99.90
13123;DHT22;6627;50.920;12.050;2022-12-29T23:12:45;6.60;99.90
13123;DHT22;6627;50.920;12.050;2022-12-29T23:15:12;6.50;99.90
13123;DHT22;6627;50.920;12.050;2022-12-29T23:17:40;6.50;99.90
13123;DHT22;6627;50.920;12.050;2022-12-29T23:20:07;6.40;99.90
13123;DHT22;6627;50.920;12.050;2022-12-29T23:22:35;6.30;99.90
13123;DHT22;6627;50.920;12.050;2022-12-29T23:25:03;6.30;99.90
13123;DHT22;6627;50.920;12.050;2022-12-29T23:27:31;6.30;99.90
13123;DHT22;6627;50.920;12.050;2022-12-29T23:29:59;6.20;99.90
13123;DHT22;6627;50.920;12.050;2022-12-29T23:32:26;6.20;99.90
13123;DHT22;6627;50.920;12.050;2022-12-29T23:34:54;6.30;99.90
13123;DHT22;6627;50.920;12.050;2022-12-29T23:37:22;6.20;99.90
13123;DHT22;6627;50.920;12.050;2022-12-29T23:39:49;6.20;99.90
13123;DHT22;6627;50.920;12.050;2022-12-29T23:42:16;6.20;99.90
13123;DHT22;6627;50.920;12.050;2022-12-29T23:44:44;6.20;99.90
13123;DHT22;6627;50.920;12.050;2022-12-29T23:47:12;6.20;99.90
13123;DHT22;6627;50.920;12.050;2022-12-29T23:49:40;6.20;99.90
13123;DHT22;6627;50.920;12.050;2022-12-29T23:52:07;6.20;99.90
13123;DHT22;6627;50.920;12.050;2022-12-29T23:54:35;6.20;99.90
13123;DHT22;6627;50.920;12.050;2022-12-29T23:57:02;6.20;99.90
13123;DHT22;6627;50.920;12.050;2022-12-29T23:59:29;6.20;99.90
